South Lunenburg, Vermont
Current Conditions -  °F | °C
As of 2:04 PM on Friday 24 Oct 2014 (Local Time) from KHIE Reporting Station
Overcast Overcast  
Wind Chill: 42°   Ceiling: 1400
Heat Index: 46°   Visibility: 9mi
Dew Point: 41°   Wind: 8mph
Humidity: 83%   Direction: 350°N
Pressure: 29.74"   Gusts: NA
Location:  44.4777°N, 71.7112°W
Report Text: KHIE 241804Z AUTO 35007KT 9SM OVC014 08/05 A2974 RMK AO2 T00780050
Loading
Personal Weather Stations






























Interactive Weather Map
Tropical Storm Tracking
New forecast layout! Learn more

10-Day Weather Forecast

Advertisements
Track Severe Weather on mobile